Time;durP1;ratioP1;P1;durP2;ratioP2;P2;SDS_P1;SDS_P2;PMS_P1;PMS_P2;Temp;Humidity;BMP_temperature;BMP_pressure;BME280_temperature;BME280_humidity;BME280_pressure;Samples;Min_cycle;Max_cycle;Signal;HPM_P1;HPM_P2
2021/07/22 00:01:25;;;;;;;13.65;10.55;;;20.50;74.60;;;;;;5073049;28;20507;-81
2021/07/22 00:03:51;;;;;;;15.25;11.38;;;20.40;75.10;;;;;;5075302;28;20424;-81
2021/07/22 00:06:16;;;;;;;15.73;11.13;;;20.30;75.60;;;;;;5073450;28;20112;-81
2021/07/22 00:08:42;;;;;;;15.10;11.10;;;20.20;76.30;;;;;;5073754;28;20516;-81
2021/07/22 00:11:08;;;;;;;14.15;10.95;;;20.20;77.00;;;;;;5090704;28;20040;-81
2021/07/22 00:13:33;;;;;;;14.95;11.55;;;20.10;77.30;;;;;;5075157;28;20029;-81
2021/07/22 00:15:59;;;;;;;14.48;11.40;;;20.00;77.60;;;;;;5075180;28;20036;-80
2021/07/22 00:18:25;;;;;;;14.15;10.77;;;20.00;78.40;;;;;;5065156;28;20028;-81
2021/07/22 00:20:51;;;;;;;16.42;11.23;;;19.90;78.70;;;;;;5053829;28;20036;-81
2021/07/22 00:23:16;;;;;;;15.73;11.20;;;19.90;78.40;;;;;;5053850;28;20059;-81
2021/07/22 00:25:42;;;;;;;16.30;11.55;;;19.80;78.90;;;;;;5055254;28;20055;-81
2021/07/22 00:28:09;;;;;;;14.27;11.20;;;19.80;79.20;;;;;;5054287;28;20032;-81
2021/07/22 00:30:34;;;;;;;14.10;10.55;;;19.70;79.30;;;;;;5053693;28;20037;-81
2021/07/22 00:33:01;;;;;;;17.77;12.20;;;19.70;79.40;;;;;;5068549;28;20032;-81
2021/07/22 00:35:30;;;;;;;19.08;11.55;;;19.70;79.70;;;;;;5090255;28;20059;-80
2021/07/22 00:37:56;;;;;;;16.73;11.27;;;19.60;79.90;;;;;;5060225;28;20498;-81
2021/07/22 00:40:22;;;;;;;15.75;11.88;;;19.60;80.20;;;;;;5053363;28;20033;-81
2021/07/22 00:43:13;;;;;;;19.85;13.18;;;19.60;80.50;;;;;;5054730;28;20095;-81
2021/07/22 00:45:39;;;;;;;19.95;12.60;;;19.60;80.50;;;;;;5052656;28;20037;-81
2021/07/22 00:48:05;;;;;;;17.92;12.32;;;19.50;80.60;;;;;;5058838;28;20048;-81
2021/07/22 00:50:32;;;;;;;18.85;12.68;;;19.50;80.70;;;;;;5072840;28;20098;-81
2021/07/22 00:52:58;;;;;;;24.88;13.35;;;19.50;80.60;;;;;;5067020;28;20037;-81
2021/07/22 00:55:26;;;;;;;19.25;13.07;;;19.40;80.60;;;;;;5053105;28;20037;-81
2021/07/22 00:57:53;;;;;;;17.80;13.75;;;19.40;80.50;;;;;;5063766;28;20035;-81
2021/07/22 01:00:19;;;;;;;18.02;13.40;;;19.30;80.30;;;;;;5089821;28;20035;-81
2021/07/22 01:02:45;;;;;;;17.48;13.50;;;19.30;80.50;;;;;;5074128;28;20029;-81
2021/07/22 01:05:11;;;;;;;16.98;13.27;;;19.30;80.70;;;;;;5065227;28;20544;-81
2021/07/22 01:07:37;;;;;;;26.65;14.98;;;19.20;80.90;;;;;;5054046;28;20063;-80
2021/07/22 01:10:04;;;;;;;24.73;13.38;;;19.20;81.00;;;;;;5054205;28;20024;-81
2021/07/22 01:12:30;;;;;;;17.63;12.30;;;19.20;81.10;;;;;;5052664;28;20040;-80
2021/07/22 01:14:55;;;;;;;19.23;12.98;;;19.20;81.40;;;;;;5052640;28;20487;-81
2021/07/22 01:17:40;;;;;;;19.77;13.27;;;19.10;81.70;;;;;;5052740;28;20062;-81
2021/07/22 01:20:10;;;;;;;20.17;12.38;;;19.10;82.10;;;;;;5064743;28;20049;-81
2021/07/22 01:22:36;;;;;;;18.63;12.80;;;19.00;82.20;;;;;;5073830;28;20070;-80
2021/07/22 01:25:02;;;;;;;20.02;13.18;;;19.00;82.20;;;;;;5057682;28;20033;-80
2021/07/22 01:27:27;;;;;;;19.60;13.20;;;19.00;82.30;;;;;;5053788;28;20043;-81
2021/07/22 01:29:53;;;;;;;20.73;13.68;;;18.90;82.30;;;;;;5065794;28;20104;-81
2021/07/22 01:32:19;;;;;;;18.33;14.15;;;18.90;82.40;;;;;;5072356;28;20043;-81
2021/07/22 01:34:44;;;;;;;21.00;14.40;;;18.90;83.10;;;;;;5057200;28;20033;-80
2021/07/22 01:37:10;;;;;;;22.17;13.95;;;18.80;83.10;;;;;;5052541;28;20143;-81
2021/07/22 01:39:35;;;;;;;21.38;12.70;;;18.80;82.60;;;;;;5052345;28;20154;-81
2021/07/22 01:42:01;;;;;;;19.77;13.05;;;18.70;82.80;;;;;;5060934;28;20028;-81
2021/07/22 01:44:29;;;;;;;19.92;13.27;;;18.80;83.10;;;;;;5072355;28;20111;-81
2021/07/22 01:46:54;;;;;;;17.23;12.48;;;18.70;83.30;;;;;;5064190;28;20037;-80
2021/07/22 01:49:20;;;;;;;17.92;11.57;;;18.70;83.40;;;;;;5058179;28;20045;-80
2021/07/22 01:51:45;;;;;;;18.05;12.45;;;18.70;83.50;;;;;;5088997;28;20052;-81
2021/07/22 01:54:11;;;;;;;19.95;12.05;;;18.60;83.50;;;;;;5067810;28;20040;-81
2021/07/22 01:56:36;;;;;;;18.02;12.45;;;18.60;83.50;;;;;;5041229;28;20037;-80
2021/07/22 01:59:02;;;;;;;18.42;12.20;;;18.60;83.60;;;;;;5071849;28;20029;-81
2021/07/22 02:01:28;;;;;;;18.80;12.77;;;18.60;83.70;;;;;;5073381;28;20104;-80
2021/07/22 02:03:54;;;;;;;17.27;12.50;;;18.50;83.70;;;;;;5062164;28;20044;-81
2021/07/22 02:06:19;;;;;;;15.55;11.57;;;18.50;84.00;;;;;;5068098;28;20028;-80
2021/07/22 02:08:45;;;;;;;16.17;12.60;;;18.40;84.10;;;;;;5061426;28;20505;-81
2021/07/22 02:11:11;;;;;;;16.08;11.98;;;18.40;84.10;;;;;;5061919;28;20584;-81
2021/07/22 02:13:36;;;;;;;17.83;13.13;;;18.30;84.10;;;;;;5061553;28;20067;-80
2021/07/22 02:16:08;;;;;;;20.17;13.07;;;18.40;84.30;;;;;;5066977;28;20055;-81
2021/07/22 02:18:34;;;;;;;17.65;12.52;;;18.40;84.50;;;;;;5057484;28;20025;-80
2021/07/22 02:21:07;;;;;;;19.30;13.50;;;18.30;84.50;;;;;;5057555;28;20542;-80
2021/07/22 02:23:33;;;;;;;21.50;13.23;;;18.30;84.80;;;;;;5057921;28;20021;-80
2021/07/22 02:26:03;;;;;;;19.13;13.32;;;18.30;84.80;;;;;;5061300;28;20020;-80
2021/07/22 02:28:29;;;;;;;16.23;12.48;;;18.20;84.70;;;;;;5061814;28;20017;-80
2021/07/22 02:30:54;;;;;;;20.83;11.95;;;18.20;84.60;;;;;;5043824;28;20075;-80
2021/07/22 02:33:20;;;;;;;16.55;11.88;;;18.20;84.60;;;;;;5062346;28;20020;-81
2021/07/22 02:35:46;;;;;;;18.63;13.50;;;18.20;84.60;;;;;;5062888;28;20119;-81
2021/07/22 02:38:11;;;;;;;19.00;13.65;;;18.20;84.60;;;;;;5067232;28;20029;-81
2021/07/22 02:40:37;;;;;;;17.88;13.63;;;18.10;84.70;;;;;;5059833;28;21622;-80
2021/07/22 02:43:02;;;;;;;17.50;14.00;;;18.10;84.60;;;;;;5057608;28;20021;-81
2021/07/22 02:45:28;;;;;;;22.02;12.75;;;18.00;84.60;;;;;;5064447;28;20613;-80
2021/07/22 02:47:54;;;;;;;18.88;13.68;;;18.00;84.80;;;;;;5059962;28;20024;-80
2021/07/22 02:50:19;;;;;;;24.77;13.63;;;18.00;84.90;;;;;;5067998;28;20533;-80
2021/07/22 02:52:45;;;;;;;19.52;13.05;;;17.90;84.90;;;;;;5059311;28;20037;-80
2021/07/22 02:55:11;;;;;;;21.63;13.05;;;18.00;84.90;;;;;;5066206;28;20127;-81
2021/07/22 02:57:37;;;;;;;19.50;13.27;;;18.00;84.90;;;;;;5066571;28;20055;-80
2021/07/22 03:00:03;;;;;;;18.08;13.27;;;18.00;84.80;;;;;;5069639;28;20025;-80
2021/07/22 03:02:28;;;;;;;17.90;12.73;;;17.90;84.80;;;;;;5063056;28;20033;-80
2021/07/22 03:04:54;;;;;;;18.55;12.85;;;17.90;84.80;;;;;;5063249;28;20064;-81
2021/07/22 03:07:20;;;;;;;21.23;13.50;;;17.90;84.90;;;;;;5059242;28;20063;-80
2021/07/22 03:09:45;;;;;;;24.33;15.90;;;17.90;85.00;;;;;;5064810;28;20029;-80
2021/07/22 03:12:11;;;;;;;25.13;14.85;;;17.80;85.10;;;;;;5063674;28;20036;-81
2021/07/22 03:14:37;;;;;;;19.30;14.48;;;17.80;85.20;;;;;;5060789;28;20095;-81
2021/07/22 03:17:02;;;;;;;19.65;13.30;;;17.80;85.20;;;;;;5067621;28;20482;-81
2021/07/22 03:19:28;;;;;;;21.30;14.20;;;17.80;85.30;;;;;;5063152;28;20060;-81
2021/07/22 03:21:53;;;;;;;19.42;13.00;;;17.70;85.10;;;;;;5069543;28;20036;-81
2021/07/22 03:24:19;;;;;;;19.73;12.32;;;17.70;85.10;;;;;;5059838;28;20078;-81
2021/07/22 03:26:45;;;;;;;18.13;12.63;;;17.70;85.00;;;;;;5064444;28;20049;-81
2021/07/22 03:29:10;;;;;;;18.08;12.50;;;17.70;85.00;;;;;;5065223;28;20029;-81
2021/07/22 03:31:36;;;;;;;26.98;15.15;;;17.70;84.80;;;;;;5058662;28;20554;-81
2021/07/22 03:34:01;;;;;;;22.15;15.23;;;17.60;84.80;;;;;;5060501;28;20040;-81
2021/07/22 03:36:27;;;;;;;20.15;14.50;;;17.60;84.80;;;;;;5071883;28;20037;-81
2021/07/22 03:38:52;;;;;;;24.80;17.83;;;17.60;84.80;;;;;;5066460;28;20021;-81
2021/07/22 03:41:18;;;;;;;24.95;15.75;;;17.50;84.80;;;;;;5062958;28;20078;-80
2021/07/22 03:43:44;;;;;;;22.55;15.98;;;17.50;84.80;;;;;;5061032;28;20124;-81
2021/07/22 03:46:09;;;;;;;24.38;15.85;;;17.50;85.00;;;;;;5068428;28;20086;-80
2021/07/22 03:48:35;;;;;;;22.70;15.00;;;17.50;85.10;;;;;;5064122;28;20476;-80
2021/07/22 03:51:01;;;;;;;25.15;15.20;;;17.50;85.40;;;;;;5053321;28;20465;-80
2021/07/22 03:53:27;;;;;;;22.67;15.52;;;17.50;85.40;;;;;;5063502;28;20025;-81
2021/07/22 03:55:52;;;;;;;23.15;15.73;;;17.40;85.40;;;;;;5067199;28;20029;-80
2021/07/22 03:58:18;;;;;;;21.98;14.68;;;17.40;85.60;;;;;;5072711;28;20024;-80
2021/07/22 04:00:43;;;;;;;24.17;15.38;;;17.40;85.80;;;;;;5065512;28;20067;-81
2021/07/22 04:03:09;;;;;;;23.98;15.95;;;17.40;86.00;;;;;;5063379;28;20029;-80
2021/07/22 04:05:35;;;;;;;20.65;15.15;;;17.40;86.20;;;;;;5062872;28;20494;-80
2021/07/22 04:08:00;;;;;;;22.92;14.77;;;17.40;86.30;;;;;;5063598;28;20033;-80
2021/07/22 04:10:28;;;;;;;21.08;14.63;;;17.40;86.30;;;;;;5060509;28;20040;-80
2021/07/22 04:13:00;;;;;;;20.58;14.02;;;17.40;86.50;;;;;;5067221;28;20033;-80
2021/07/22 04:15:27;;;;;;;26.48;14.68;;;17.40;86.70;;;;;;5060258;28;20028;-80
2021/07/22 04:17:54;;;;;;;21.20;15.18;;;17.40;86.70;;;;;;5047879;28;20025;-80
2021/07/22 04:20:22;;;;;;;19.40;14.52;;;17.40;86.80;;;;;;5062707;28;20021;-80
2021/07/22 04:22:48;;;;;;;22.20;15.45;;;17.40;86.90;;;;;;5064922;28;20608;-80
2021/07/22 04:25:14;;;;;;;19.95;13.13;;;17.40;86.90;;;;;;5061220;28;20033;-80
2021/07/22 04:27:40;;;;;;;19.60;13.95;;;17.40;86.90;;;;;;5062495;28;20103;-80
2021/07/22 04:30:07;;;;;;;19.70;13.90;;;17.50;86.90;;;;;;5061924;28;20037;-80
2021/07/22 04:32:32;;;;;;;16.58;12.73;;;17.50;87.30;;;;;;5066889;28;20056;-80
2021/07/22 04:34:58;;;;;;;24.60;15.20;;;17.50;87.10;;;;;;5065009;28;20139;-80
2021/07/22 04:37:24;;;;;;;18.83;13.60;;;17.60;87.20;;;;;;5060347;28;20028;-80
2021/07/22 04:39:49;;;;;;;21.20;13.77;;;17.60;87.20;;;;;;5063293;28;21718;-80
2021/07/22 04:42:15;;;;;;;22.05;14.32;;;17.70;87.30;;;;;;5072226;28;20039;-80
2021/07/22 04:44:40;;;;;;;19.90;15.02;;;17.70;87.30;;;;;;5062327;28;20040;-80
2021/07/22 04:47:06;;;;;;;20.00;13.73;;;17.80;87.40;;;;;;5058166;28;20054;-80
2021/07/22 04:49:32;;;;;;;21.58;14.98;;;17.80;87.40;;;;;;5057345;28;20053;-80
2021/07/22 04:51:58;;;;;;;21.52;14.27;;;17.90;87.50;;;;;;5057030;28;20043;-80
2021/07/22 04:54:24;;;;;;;23.10;14.05;;;17.90;87.50;;;;;;5067964;28;20028;-80
2021/07/22 04:56:50;;;;;;;21.83;13.18;;;18.00;87.60;;;;;;5041524;28;20033;-80
2021/07/22 04:59:16;;;;;;;19.95;13.77;;;18.00;87.50;;;;;;5041903;28;20024;-80
2021/07/22 05:01:41;;;;;;;19.92;12.43;;;18.00;87.40;;;;;;5062030;28;20112;-80
2021/07/22 05:04:07;;;;;;;16.38;12.82;;;18.10;87.40;;;;;;5066943;28;20025;-81
2021/07/22 05:06:33;;;;;;;18.48;13.70;;;18.10;87.20;;;;;;5073044;28;20040;-80
2021/07/22 05:09:01;;;;;;;19.88;14.60;;;18.20;87.30;;;;;;5058647;28;20037;-80
2021/07/22 05:11:26;;;;;;;17.48;13.38;;;18.30;87.40;;;;;;5073848;28;20374;-80
2021/07/22 05:13:52;;;;;;;20.75;14.50;;;18.30;87.40;;;;;;5073797;28;20078;-80
2021/07/22 05:16:20;;;;;;;20.73;15.05;;;18.30;87.30;;;;;;5074010;28;20039;-80
2021/07/22 05:18:46;;;;;;;23.63;16.20;;;18.40;87.60;;;;;;5072258;28;20545;-80
2021/07/22 05:21:11;;;;;;;23.33;16.67;;;18.40;87.70;;;;;;5074071;28;20142;-81
2021/07/22 05:23:41;;;;;;;27.00;19.63;;;18.50;87.70;;;;;;5078686;28;20028;-80
2021/07/22 05:26:10;;;;;;;25.00;18.60;;;18.50;87.20;;;;;;5075790;28;20029;-80
2021/07/22 05:28:36;;;;;;;26.15;17.33;;;18.60;86.80;;;;;;5072383;28;20033;-81
2021/07/22 05:31:06;;;;;;;28.25;17.60;;;18.60;86.60;;;;;;5047323;28;20024;-81
2021/07/22 05:33:33;;;;;;;26.63;19.10;;;18.60;86.80;;;;;;5053811;28;20104;-80
2021/07/22 05:36:04;;;;;;;23.20;17.45;;;18.60;85.70;;;;;;5054421;28;20051;-80
2021/07/22 05:38:34;;;;;;;26.73;18.65;;;18.70;86.50;;;;;;5062747;28;20021;-80
2021/07/22 05:41:04;;;;;;;25.92;18.08;;;18.70;85.70;;;;;;5087926;28;20370;-80
2021/07/22 05:43:30;;;;;;;33.20;22.10;;;18.80;85.70;;;;;;5070881;28;20056;-80
2021/07/22 05:45:56;;;;;;;32.17;20.88;;;18.80;85.60;;;;;;5072274;28;20029;-80
2021/07/22 05:48:22;;;;;;;30.60;21.70;;;18.90;85.30;;;;;;5060392;28;20428;-80
2021/07/22 05:50:49;;;;;;;29.98;22.02;;;19.00;84.90;;;;;;5073199;28;20127;-81
2021/07/22 05:53:18;;;;;;;31.80;21.48;;;19.10;85.40;;;;;;5084137;28;20036;-80
2021/07/22 05:55:44;;;;;;;29.77;21.98;;;19.20;84.50;;;;;;5072158;28;20029;-80
2021/07/22 05:58:10;;;;;;;32.85;22.05;;;19.20;84.30;;;;;;5061684;28;20016;-80
2021/07/22 06:00:36;;;;;;;33.90;24.02;;;19.20;84.20;;;;;;5088791;28;20385;-79
2021/07/22 06:03:08;;;;;;;32.88;22.70;;;19.20;84.30;;;;;;5072724;28;20031;-80
2021/07/22 06:05:34;;;;;;;34.58;24.90;;;19.20;84.70;;;;;;5058347;28;20021;-80
2021/07/22 06:08:03;;;;;;;34.13;24.08;;;19.30;84.80;;;;;;5053183;28;20040;-80
2021/07/22 06:10:30;;;;;;;39.42;26.15;;;19.30;84.60;;;;;;5052117;28;20490;-80
2021/07/22 06:12:56;;;;;;;38.88;26.33;;;19.40;84.50;;;;;;5053281;28;20033;-80
2021/07/22 06:15:22;;;;;;;36.80;26.13;;;19.50;84.30;;;;;;5059040;28;20111;-80
2021/07/22 06:17:48;;;;;;;35.10;25.08;;;19.60;84.20;;;;;;5072995;28;20071;-80
2021/07/22 06:20:14;;;;;;;42.30;26.70;;;19.70;83.80;;;;;;5071911;28;20496;-79
2021/07/22 06:22:40;;;;;;;41.55;27.27;;;19.80;83.20;;;;;;5055203;28;20115;-79
2021/07/22 06:25:06;;;;;;;39.25;25.88;;;19.90;82.90;;;;;;5073109;28;20086;-79
2021/07/22 06:27:32;;;;;;;36.58;25.50;;;20.00;82.60;;;;;;5073203;28;20024;-79
2021/07/22 06:30:02;;;;;;;40.40;27.45;;;20.10;82.60;;;;;;5088652;28;20029;-79
2021/07/22 06:32:28;;;;;;;38.38;26.80;;;20.10;82.20;;;;;;5088700;28;20135;-79
2021/07/22 06:34:54;;;;;;;35.53;26.30;;;20.20;82.10;;;;;;5061285;28;20112;-79
2021/07/22 06:37:19;;;;;;;37.35;26.48;;;20.30;82.00;;;;;;5052876;28;20039;-79
2021/07/22 06:39:45;;;;;;;38.47;26.65;;;20.40;81.80;;;;;;5053037;28;20026;-79
2021/07/22 06:42:11;;;;;;;35.60;26.48;;;20.50;81.60;;;;;;5059363;28;20032;-79
2021/07/22 06:44:36;;;;;;;42.05;27.85;;;20.50;81.40;;;;;;5064703;28;20040;-79
2021/07/22 06:47:02;;;;;;;41.75;29.95;;;20.60;81.10;;;;;;5072738;28;20452;-79
2021/07/22 06:49:28;;;;;;;40.33;29.30;;;20.80;80.90;;;;;;5072350;28;20052;-79
2021/07/22 06:51:53;;;;;;;44.05;31.67;;;20.80;80.50;;;;;;5088586;28;20031;-78
2021/07/22 06:54:20;;;;;;;46.35;30.38;;;20.90;80.00;;;;;;5071431;28;20432;-82
2021/07/22 06:56:46;;;;;;;43.92;31.40;;;21.00;79.70;;;;;;5052884;28;20032;-81
2021/07/22 06:59:12;;;;;;;39.42;29.50;;;21.00;79.50;;;;;;5051636;28;20479;-81
2021/07/22 07:01:37;;;;;;;42.15;27.75;;;21.10;78.70;;;;;;5067238;28;20025;-82
2021/07/22 07:04:03;;;;;;;44.55;28.48;;;21.20;78.50;;;;;;5071617;28;20036;-82
2021/07/22 07:06:30;;;;;;;45.67;31.38;;;21.20;78.30;;;;;;5071579;28;20424;-82
2021/07/22 07:08:55;;;;;;;41.78;29.88;;;21.30;78.40;;;;;;5071475;28;20051;-82
2021/07/22 07:11:21;;;;;;;42.40;29.25;;;21.40;78.00;;;;;;5058277;28;20036;-83
2021/07/22 07:13:47;;;;;;;38.85;27.23;;;21.50;77.60;;;;;;5075326;28;20042;-83
2021/07/22 07:16:12;;;;;;;42.58;28.30;;;21.50;77.30;;;;;;5058496;28;20116;-83
2021/07/22 07:18:38;;;;;;;39.05;26.58;;;21.70;77.10;;;;;;5075280;28;20024;-83
2021/07/22 07:21:04;;;;;;;38.22;27.77;;;21.90;76.80;;;;;;5075257;28;20036;-83
2021/07/22 07:23:31;;;;;;;34.28;25.23;;;22.00;76.20;;;;;;5076346;28;20021;-83
2021/07/22 07:25:57;;;;;;;41.55;28.48;;;22.10;76.20;;;;;;5076263;28;20032;-83
2021/07/22 07:28:22;;;;;;;43.95;28.33;;;22.20;75.30;;;;;;5075111;28;20032;-83
2021/07/22 07:30:48;;;;;;;42.78;28.20;;;22.30;75.10;;;;;;5076166;28;20489;-83
2021/07/22 07:33:13;;;;;;;37.53;26.30;;;22.40;74.50;;;;;;5058388;28;20481;-83
2021/07/22 07:35:39;;;;;;;35.17;24.80;;;22.40;74.30;;;;;;5075976;28;20077;-83
2021/07/22 07:38:05;;;;;;;36.15;23.45;;;22.50;74.10;;;;;;5074887;28;20036;-83
2021/07/22 07:40:31;;;;;;;33.30;22.25;;;22.60;73.70;;;;;;5074809;28;20028;-83
2021/07/22 07:42:57;;;;;;;31.48;21.80;;;22.70;73.50;;;;;;5074726;28;20405;-83
2021/07/22 07:45:25;;;;;;;33.92;23.73;;;22.70;73.50;;;;;;5074568;28;20036;-82
2021/07/22 07:47:51;;;;;;;33.75;22.38;;;22.70;73.70;;;;;;5075591;28;20029;-81
2021/07/22 07:50:17;;;;;;;32.83;22.45;;;22.80;72.90;;;;;;5075337;28;20489;-81
2021/07/22 07:52:43;;;;;;;29.73;21.65;;;22.90;72.30;;;;;;5057831;28;20043;-81
2021/07/22 07:55:09;;;;;;;36.67;20.75;;;22.90;72.30;;;;;;5075174;28;20025;-81
2021/07/22 07:57:35;;;;;;;31.73;20.63;;;23.00;72.00;;;;;;5074264;28;20038;-82
2021/07/22 08:00:01;;;;;;;30.83;22.02;;;23.10;72.20;;;;;;5074256;28;20468;-81
2021/07/22 08:02:26;;;;;;;27.58;21.85;;;23.10;71.50;;;;;;5075656;28;20382;-82
2021/07/22 08:04:55;;;;;;;27.15;20.60;;;23.20;71.20;;;;;;5072397;28;20478;-82
2021/07/22 08:07:20;;;;;;;30.17;20.23;;;23.20;71.20;;;;;;5074337;28;20516;-81
2021/07/22 08:09:47;;;;;;;27.05;19.98;;;23.30;71.10;;;;;;5074218;28;20033;-81
2021/07/22 08:12:13;;;;;;;31.55;20.67;;;23.40;71.30;;;;;;5074455;28;20028;-82
2021/07/22 08:14:39;;;;;;;29.00;18.42;;;23.50;71.50;;;;;;5072398;28;20028;-82
2021/07/22 08:17:08;;;;;;;22.48;17.35;;;23.60;71.30;;;;;;5073643;28;20025;-82
2021/07/22 08:19:34;;;;;;;22.88;17.30;;;23.70;69.80;;;;;;5089177;28;20469;-82
2021/07/22 08:21:59;;;;;;;28.30;18.25;;;23.70;69.70;;;;;;5056246;28;20036;-82
2021/07/22 08:24:25;;;;;;;26.35;18.20;;;23.80;69.80;;;;;;5073743;28;20028;-82
2021/07/22 08:26:51;;;;;;;26.77;18.40;;;23.90;69.90;;;;;;5075036;28;20033;-82
2021/07/22 08:29:16;;;;;;;30.42;18.63;;;24.00;69.10;;;;;;5073733;28;20029;-82
2021/07/22 08:31:42;;;;;;;29.50;16.20;;;24.10;68.80;;;;;;5073983;28;20115;-82
2021/07/22 08:34:09;;;;;;;29.50;18.25;;;24.10;67.70;;;;;;5075135;28;20025;-82
2021/07/22 08:36:34;;;;;;;25.02;17.63;;;24.20;67.40;;;;;;5073662;28;20029;-82
2021/07/22 08:39:00;;;;;;;24.30;14.90;;;24.20;67.10;;;;;;5073553;28;20035;-82
2021/07/22 08:41:26;;;;;;;22.60;14.77;;;24.20;67.60;;;;;;5075153;28;20466;-82
2021/07/22 08:43:52;;;;;;;21.65;15.35;;;24.30;66.60;;;;;;5073541;28;20078;-82
2021/07/22 08:46:18;;;;;;;23.30;14.43;;;24.40;65.30;;;;;;5073363;28;20393;-82
2021/07/22 08:48:44;;;;;;;22.33;15.38;;;24.40;65.20;;;;;;5074790;28;20051;-82
2021/07/22 08:51:10;;;;;;;21.60;16.10;;;24.40;64.90;;;;;;5063874;28;20045;-82
2021/07/22 08:53:36;;;;;;;18.85;14.70;;;24.40;65.00;;;;;;5053235;28;20025;-82
2021/07/22 08:56:07;;;;;;;22.02;15.68;;;24.50;65.90;;;;;;5065086;28;20067;-82
2021/07/22 08:58:37;;;;;;;26.27;15.27;;;24.60;66.90;;;;;;5069279;28;20029;-82
2021/07/22 09:01:05;;;;;;;21.02;15.18;;;24.70;64.90;;;;;;5065339;28;20055;-82
2021/07/22 09:03:31;;;;;;;;;;;24.80;64.00;;;;;;5067879;28;20116;-82
2021/07/22 09:05:56;;;;;;;23.38;15.07;;;25.00;63.10;;;;;;5061789;28;19970;-82
2021/07/22 09:08:22;;;;;;;23.95;15.88;;;25.00;63.90;;;;;;5065405;28;20058;-82
2021/07/22 09:11:08;;;;;;;24.17;14.80;;;25.10;63.50;;;;;;5068659;28;20036;-82
2021/07/22 09:13:35;;;;;;;22.40;14.38;;;25.30;63.40;;;;;;5074036;28;20111;-83
2021/07/22 09:16:00;;;;;;;22.10;15.02;;;25.40;61.60;;;;;;5072578;28;20538;-82
2021/07/22 09:18:35;;;;;;;22.60;14.00;;;25.40;61.60;;;;;;5071771;28;20024;-82
2021/07/22 09:21:23;;;;;;;22.08;14.93;;;25.60;61.70;;;;;;5072993;28;20025;-83
2021/07/22 09:24:05;;;;;;;23.20;13.48;;;25.70;60.30;;;;;;5074370;28;20364;-83
2021/07/22 09:26:33;;;;;;;19.00;14.23;;;25.50;60.80;;;;;;5072695;28;20645;-82
2021/07/22 09:29:09;;;;;;;21.95;14.15;;;25.20;61.40;;;;;;5073998;28;20025;-83
2021/07/22 09:31:35;;;;;;;23.63;17.73;;;25.30;62.30;;;;;;5073891;28;20059;-83
2021/07/22 09:34:01;;;;;;;24.60;16.33;;;25.50;61.40;;;;;;5072490;28;20024;-83
2021/07/22 09:36:27;;;;;;;28.17;17.55;;;25.60;62.00;;;;;;5072740;28;20029;-83
2021/07/22 09:38:53;;;;;;;22.27;15.73;;;25.80;61.50;;;;;;5073664;28;20021;-83
2021/07/22 09:41:20;;;;;;;23.20;16.70;;;25.90;61.20;;;;;;5072368;28;20028;-83
2021/07/22 09:43:46;;;;;;;18.08;13.73;;;25.70;60.80;;;;;;5073666;28;20462;-83
2021/07/22 09:46:12;;;;;;;21.45;14.75;;;25.50;62.30;;;;;;5072655;28;20040;-82
2021/07/22 09:48:37;;;;;;;19.88;14.48;;;25.20;62.90;;;;;;5073675;28;20021;-83
2021/07/22 09:51:03;;;;;;;21.35;14.80;;;25.00;64.00;;;;;;5072303;28;20098;-83
2021/07/22 09:53:29;;;;;;;20.27;14.70;;;25.00;64.80;;;;;;5089088;28;20040;-83
2021/07/22 09:55:56;;;;;;;24.85;16.20;;;25.20;64.50;;;;;;5073423;28;20125;-83
2021/07/22 09:58:22;;;;;;;18.60;14.02;;;25.50;63.30;;;;;;5072377;28;20029;-82
2021/07/22 10:00:50;;;;;;;20.80;15.55;;;25.90;62.20;;;;;;5072328;28;20505;-83
2021/07/22 10:03:19;;;;;;;22.38;14.07;;;26.10;61.00;;;;;;5073413;28;20033;-83
2021/07/22 10:06:04;;;;;;;17.50;12.88;;;26.00;60.90;;;;;;5073527;28;20048;-83
2021/07/22 10:08:32;;;;;;;17.35;12.93;;;25.70;62.40;;;;;;5073437;28;20123;-83
2021/07/22 10:10:59;;;;;;;20.63;13.63;;;25.40;62.70;;;;;;5072079;28;20094;-83
2021/07/22 10:13:36;;;;;;;19.55;13.75;;;25.20;63.10;;;;;;5072216;28;20132;-83
2021/07/22 10:16:07;;;;;;;19.52;12.95;;;25.20;62.20;;;;;;5073101;28;20504;-82
2021/07/22 10:18:36;;;;;;;19.02;12.88;;;25.60;62.50;;;;;;5073370;28;20021;-83
2021/07/22 10:21:03;;;;;;;16.42;11.88;;;25.80;61.00;;;;;;5071553;28;20362;-83
2021/07/22 10:23:30;;;;;;;17.73;12.57;;;25.90;61.70;;;;;;5072636;28;20079;-82
2021/07/22 10:25:57;;;;;;;15.75;11.93;;;26.10;61.90;;;;;;5072748;28;20031;-83
2021/07/22 10:28:23;;;;;;;18.23;12.85;;;26.10;62.40;;;;;;5071922;28;20127;-83
2021/07/22 10:30:50;;;;;;;17.65;11.85;;;25.80;61.10;;;;;;5071813;28;20078;-82
2021/07/22 10:33:21;;;;;;;17.58;12.10;;;25.70;62.00;;;;;;5070904;28;20482;-83
2021/07/22 10:35:51;;;;;;;16.75;10.35;;;25.90;61.40;;;;;;5071602;28;20032;-86
2021/07/22 10:38:21;;;;;;;14.20;10.40;;;26.20;60.90;;;;;;5053678;28;20032;-86
2021/07/22 10:40:48;;;;;;;14.95;10.80;;;26.50;60.30;;;;;;5061434;28;20078;-83
2021/07/22 10:43:38;;;;;;;17.30;11.77;;;26.70;59.80;;;;;;5071680;28;20082;-83
2021/07/22 10:46:09;;;;;;;24.65;12.85;;;26.90;58.00;;;;;;5076197;28;20867;-83
2021/07/22 10:48:35;;;;;;;17.20;11.48;;;27.20;58.20;;;;;;5077210;28;20029;-83
2021/07/22 10:51:03;;;;;;;13.95;10.52;;;27.20;58.10;;;;;;5076704;28;20062;-84
2021/07/22 10:53:44;;;;;;;11.73;9.43;;;27.10;57.90;;;;;;5076696;28;20032;-84
2021/07/22 10:56:16;;;;;;;19.05;10.25;;;26.90;58.70;;;;;;5076766;28;20283;-84
2021/07/22 10:58:42;;;;;;;11.38;9.30;;;26.70;59.60;;;;;;5092440;28;20052;-83
2021/07/22 11:01:08;;;;;;;14.48;9.77;;;26.50;59.90;;;;;;5076783;28;20071;-83
2021/07/22 11:03:37;;;;;;;12.88;9.55;;;26.60;60.10;;;;;;5076657;28;20034;-83
2021/07/22 11:06:05;;;;;;;18.15;9.52;;;26.70;59.50;;;;;;5076677;28;20028;-83
2021/07/22 11:08:32;;;;;;;13.63;9.07;;;26.70;59.10;;;;;;5076279;28;20020;-83
2021/07/22 11:11:16;;;;;;;12.10;8.40;;;26.60;58.80;;;;;;5076323;28;20032;-83
2021/07/22 11:13:46;;;;;;;14.50;9.13;;;26.70;58.50;;;;;;5076529;28;20024;-83
2021/07/22 11:16:31;;;;;;;15.98;10.25;;;26.70;58.40;;;;;;5076310;28;20440;-83
2021/07/22 11:18:58;;;;;;;14.35;9.68;;;26.70;58.70;;;;;;5075052;28;20020;-84
2021/07/22 11:21:32;;;;;;;11.93;8.88;;;26.70;58.00;;;;;;5076247;28;20101;-84
2021/07/22 11:24:18;;;;;;;12.57;8.70;;;26.80;57.40;;;;;;5076386;28;20023;-83
2021/07/22 11:26:49;;;;;;;13.32;9.15;;;27.10;57.10;;;;;;5076021;28;20021;-83
2021/07/22 11:29:16;;;;;;;11.05;7.78;;;27.20;57.00;;;;;;5091729;28;20716;-84
2021/07/22 11:31:49;;;;;;;10.18;7.57;;;27.40;56.40;;;;;;5075731;28;20032;-83
2021/07/22 11:34:24;;;;;;;12.15;7.82;;;27.50;56.50;;;;;;5074675;28;20033;-84
2021/07/22 11:36:54;;;;;;;15.20;7.53;;;27.70;55.00;;;;;;5059519;28;20123;-84
2021/07/22 11:39:30;;;;;;;12.10;8.27;;;27.80;54.60;;;;;;5076224;28;20091;-84
2021/07/22 11:42:06;;;;;;;11.52;7.85;;;28.00;53.90;;;;;;5074658;28;20032;-84
2021/07/22 11:44:32;;;;;;;12.70;8.30;;;28.00;54.20;;;;;;5074793;28;20028;-84
2021/07/22 11:46:58;;;;;;;12.48;8.68;;;28.10;54.50;;;;;;5075839;28;20024;-84
2021/07/22 11:49:31;;;;;;;10.93;7.10;;;28.10;53.40;;;;;;5075382;28;20041;-84
2021/07/22 11:51:56;;;;;;;13.75;7.97;;;28.20;54.40;;;;;;5075663;28;20028;-84
2021/07/22 11:54:22;;;;;;;11.05;7.15;;;28.40;54.70;;;;;;5075706;28;20081;-85
2021/07/22 11:56:48;;;;;;;10.35;7.65;;;28.30;53.60;;;;;;5073216;28;20024;-84
2021/07/22 11:59:14;;;;;;;9.80;6.53;;;28.00;53.10;;;;;;5075664;28;20028;-84
2021/07/22 12:01:51;;;;;;;9.25;6.97;;;27.90;54.00;;;;;;5074556;28;20025;-83
2021/07/22 12:04:35;;;;;;;12.15;7.15;;;27.90;54.10;;;;;;5057670;28;20055;-83
2021/07/22 12:07:08;;;;;;;11.25;6.82;;;28.00;53.30;;;;;;5089181;28;20032;-83
2021/07/22 12:09:51;;;;;;;9.35;6.97;;;28.10;53.00;;;;;;5094376;28;20024;-84
2021/07/22 12:12:23;;;;;;;11.13;7.07;;;28.20;52.80;;;;;;5060797;28;20032;-83
2021/07/22 12:14:48;;;;;;;10.52;6.88;;;28.30;53.00;;;;;;5075039;28;20096;-84
2021/07/22 12:17:15;;;;;;;11.68;6.25;;;28.50;52.50;;;;;;5066137;28;20104;-83
2021/07/22 12:19:47;;;;;;;8.02;6.50;;;28.60;52.00;;;;;;5054968;28;20025;-82
2021/07/22 12:22:29;;;;;;;8.43;5.93;;;28.70;51.20;;;;;;5074089;28;20382;-83
2021/07/22 12:25:07;;;;;;;9.63;5.63;;;28.80;50.50;;;;;;5089252;28;20032;-83
2021/07/22 12:27:54;;;;;;;10.77;5.90;;;29.00;50.90;;;;;;5055266;28;20025;-82
2021/07/22 12:30:23;;;;;;;9.27;5.88;;;29.00;50.20;;;;;;5071036;28;20055;-83